sensor_id;sensor_type;location;lat;lon;timestamp;P1;durP1;ratioP1;P2;durP2;ratioP2
33162;SDS011;29282;45.656;11.302;2022-11-15T00:00:05;9.10;;;5.22;;
33162;SDS011;29282;45.656;11.302;2022-11-15T00:02:31;8.02;;;5.15;;
33162;SDS011;29282;45.656;11.302;2022-11-15T00:04:57;8.82;;;5.63;;
33162;SDS011;29282;45.656;11.302;2022-11-15T00:07:22;6.55;;;5.15;;
33162;SDS011;29282;45.656;11.302;2022-11-15T00:09:47;7.60;;;5.13;;
33162;SDS011;29282;45.656;11.302;2022-11-15T00:12:13;7.07;;;5.20;;
33162;SDS011;29282;45.656;11.302;2022-11-15T00:14:38;6.38;;;4.72;;
33162;SDS011;29282;45.656;11.302;2022-11-15T00:17:04;7.38;;;5.22;;
33162;SDS011;29282;45.656;11.302;2022-11-15T00:19:29;5.22;;;4.28;;
33162;SDS011;29282;45.656;11.302;2022-11-15T00:21:55;6.88;;;5.07;;
33162;SDS011;29282;45.656;11.302;2022-11-15T00:24:20;6.28;;;4.72;;
33162;SDS011;29282;45.656;11.302;2022-11-15T00:26:46;8.50;;;5.00;;
33162;SDS011;29282;45.656;11.302;2022-11-15T00:29:11;6.00;;;4.75;;
33162;SDS011;29282;45.656;11.302;2022-11-15T00:31:43;5.82;;;4.82;;
33162;SDS011;29282;45.656;11.302;2022-11-15T00:34:09;6.53;;;4.80;;
33162;SDS011;29282;45.656;11.302;2022-11-15T00:36:35;11.63;;;5.10;;
33162;SDS011;29282;45.656;11.302;2022-11-15T00:39:00;5.97;;;4.68;;
33162;SDS011;29282;45.656;11.302;2022-11-15T00:41:28;9.45;;;4.90;;
33162;SDS011;29282;45.656;11.302;2022-11-15T00:43:53;8.73;;;5.03;;
33162;SDS011;29282;45.656;11.302;2022-11-15T00:46:19;9.52;;;4.75;;
33162;SDS011;29282;45.656;11.302;2022-11-15T00:48:44;5.43;;;4.60;;
33162;SDS011;29282;45.656;11.302;2022-11-15T00:51:10;9.68;;;4.82;;
33162;SDS011;29282;45.656;11.302;2022-11-15T00:53:38;8.57;;;4.63;;
33162;SDS011;29282;45.656;11.302;2022-11-15T00:56:04;5.88;;;4.85;;
33162;SDS011;29282;45.656;11.302;2022-11-15T00:58:29;7.15;;;4.70;;
33162;SDS011;29282;45.656;11.302;2022-11-15T01:00:55;6.10;;;4.63;;
33162;SDS011;29282;45.656;11.302;2022-11-15T01:03:20;11.98;;;4.75;;
33162;SDS011;29282;45.656;11.302;2022-11-15T01:05:46;5.28;;;4.68;;
33162;SDS011;29282;45.656;11.302;2022-11-15T01:08:12;6.30;;;4.60;;
33162;SDS011;29282;45.656;11.302;2022-11-15T01:10:39;6.15;;;4.50;;
33162;SDS011;29282;45.656;11.302;2022-11-15T01:13:05;7.00;;;4.57;;
33162;SDS011;29282;45.656;11.302;2022-11-15T01:15:31;6.88;;;5.15;;
33162;SDS011;29282;45.656;11.302;2022-11-15T01:17:56;9.57;;;4.45;;
33162;SDS011;29282;45.656;11.302;2022-11-15T01:20:22;7.28;;;4.60;;
33162;SDS011;29282;45.656;11.302;2022-11-15T01:22:47;5.10;;;4.28;;
33162;SDS011;29282;45.656;11.302;2022-11-15T01:25:13;6.63;;;4.47;;
33162;SDS011;29282;45.656;11.302;2022-11-15T01:27:38;5.75;;;4.55;;
33162;SDS011;29282;45.656;11.302;2022-11-15T01:30:04;5.57;;;4.57;;
33162;SDS011;29282;45.656;11.302;2022-11-15T01:32:33;7.78;;;4.32;;
33162;SDS011;29282;45.656;11.302;2022-11-15T01:34:59;5.88;;;4.50;;
33162;SDS011;29282;45.656;11.302;2022-11-15T01:37:24;6.47;;;4.28;;
33162;SDS011;29282;45.656;11.302;2022-11-15T01:39:50;4.55;;;4.05;;
33162;SDS011;29282;45.656;11.302;2022-11-15T01:42:15;6.07;;;4.97;;
33162;SDS011;29282;45.656;11.302;2022-11-15T01:44:46;4.95;;;4.43;;
33162;SDS011;29282;45.656;11.302;2022-11-15T01:50:04;5.22;;;4.07;;
33162;SDS011;29282;45.656;11.302;2022-11-15T01:52:33;5.47;;;4.28;;
33162;SDS011;29282;45.656;11.302;2022-11-15T01:57:51;4.20;;;3.80;;
33162;SDS011;29282;45.656;11.302;2022-11-15T02:00:21;6.20;;;4.72;;
33162;SDS011;29282;45.656;11.302;2022-11-15T02:02:46;5.97;;;4.05;;
33162;SDS011;29282;45.656;11.302;2022-11-15T02:05:12;5.88;;;4.40;;
33162;SDS011;29282;45.656;11.302;2022-11-15T02:07:38;5.35;;;4.05;;
33162;SDS011;29282;45.656;11.302;2022-11-15T02:10:16;6.43;;;4.68;;
33162;SDS011;29282;45.656;11.302;2022-11-15T02:12:46;4.78;;;4.10;;
33162;SDS011;29282;45.656;11.302;2022-11-15T02:15:12;4.85;;;4.35;;
33162;SDS011;29282;45.656;11.302;2022-11-15T02:25:42;4.45;;;3.58;;
33162;SDS011;29282;45.656;11.302;2022-11-15T02:31:23;4.97;;;4.05;;
33162;SDS011;29282;45.656;11.302;2022-11-15T02:33:57;5.25;;;3.75;;
33162;SDS011;29282;45.656;11.302;2022-11-15T02:42:00;4.45;;;3.88;;
33162;SDS011;29282;45.656;11.302;2022-11-15T02:44:33;5.25;;;3.85;;
33162;SDS011;29282;45.656;11.302;2022-11-15T02:47:04;4.30;;;3.90;;
33162;SDS011;29282;45.656;11.302;2022-11-15T02:49:40;4.72;;;3.55;;
33162;SDS011;29282;45.656;11.302;2022-11-15T02:52:18;5.00;;;3.78;;
33162;SDS011;29282;45.656;11.302;2022-11-15T02:54:55;4.75;;;3.70;;
33162;SDS011;29282;45.656;11.302;2022-11-15T03:00:09;5.15;;;3.75;;
33162;SDS011;29282;45.656;11.302;2022-11-15T03:05:41;4.57;;;3.50;;
33162;SDS011;29282;45.656;11.302;2022-11-15T03:14:25;5.50;;;3.88;;
33162;SDS011;29282;45.656;11.302;2022-11-15T03:19:50;4.40;;;3.67;;
33162;SDS011;29282;45.656;11.302;2022-11-15T03:22:20;4.05;;;3.65;;
33162;SDS011;29282;45.656;11.302;2022-11-15T03:24:50;3.83;;;3.42;;
33162;SDS011;29282;45.656;11.302;2022-11-15T03:27:20;4.93;;;3.60;;
33162;SDS011;29282;45.656;11.302;2022-11-15T03:29:50;4.78;;;3.58;;
33162;SDS011;29282;45.656;11.302;2022-11-15T03:32:21;4.45;;;3.15;;
33162;SDS011;29282;45.656;11.302;2022-11-15T03:34:52;4.18;;;3.47;;
33162;SDS011;29282;45.656;11.302;2022-11-15T03:37:24;4.20;;;3.63;;
33162;SDS011;29282;45.656;11.302;2022-11-15T03:39:58;3.60;;;3.15;;
33162;SDS011;29282;45.656;11.302;2022-11-15T03:42:43;4.45;;;3.78;;
33162;SDS011;29282;45.656;11.302;2022-11-15T03:45:15;3.40;;;3.10;;
33162;SDS011;29282;45.656;11.302;2022-11-15T03:47:57;4.72;;;3.40;;
33162;SDS011;29282;45.656;11.302;2022-11-15T03:50:31;3.90;;;3.42;;
33162;SDS011;29282;45.656;11.302;2022-11-15T03:52:57;3.88;;;3.33;;
33162;SDS011;29282;45.656;11.302;2022-11-15T03:55:23;4.82;;;3.55;;
33162;SDS011;29282;45.656;11.302;2022-11-15T03:57:50;3.53;;;3.13;;
33162;SDS011;29282;45.656;11.302;2022-11-15T04:00:19;5.00;;;3.83;;
33162;SDS011;29282;45.656;11.302;2022-11-15T04:02:45;4.55;;;3.88;;
33162;SDS011;29282;45.656;11.302;2022-11-15T04:05:10;5.75;;;3.58;;
33162;SDS011;29282;45.656;11.302;2022-11-15T04:07:36;3.90;;;2.97;;
33162;SDS011;29282;45.656;11.302;2022-11-15T04:10:02;5.88;;;3.35;;
33162;SDS011;29282;45.656;11.302;2022-11-15T04:12:34;3.67;;;3.30;;
33162;SDS011;29282;45.656;11.302;2022-11-15T04:17:40;3.92;;;3.53;;
33162;SDS011;29282;45.656;11.302;2022-11-15T04:20:08;4.25;;;3.35;;
33162;SDS011;29282;45.656;11.302;2022-11-15T04:23:13;3.63;;;2.85;;
33162;SDS011;29282;45.656;11.302;2022-11-15T04:26:01;4.82;;;3.45;;
33162;SDS011;29282;45.656;11.302;2022-11-15T04:28:28;5.15;;;3.28;;
33162;SDS011;29282;45.656;11.302;2022-11-15T04:30:54;5.45;;;3.40;;
33162;SDS011;29282;45.656;11.302;2022-11-15T04:33:20;3.53;;;3.17;;
33162;SDS011;29282;45.656;11.302;2022-11-15T04:35:46;4.45;;;3.08;;
33162;SDS011;29282;45.656;11.302;2022-11-15T04:38:31;3.80;;;2.97;;
33162;SDS011;29282;45.656;11.302;2022-11-15T04:40:57;3.97;;;3.30;;
33162;SDS011;29282;45.656;11.302;2022-11-15T04:43:23;3.65;;;3.33;;
33162;SDS011;29282;45.656;11.302;2022-11-15T04:45:48;5.20;;;2.90;;
33162;SDS011;29282;45.656;11.302;2022-11-15T04:48:14;3.65;;;3.22;;
33162;SDS011;29282;45.656;11.302;2022-11-15T04:50:39;4.25;;;3.17;;
33162;SDS011;29282;45.656;11.302;2022-11-15T04:53:05;3.95;;;3.40;;
33162;SDS011;29282;45.656;11.302;2022-11-15T04:55:31;3.30;;;2.95;;
33162;SDS011;29282;45.656;11.302;2022-11-15T04:57:57;4.43;;;2.92;;
33162;SDS011;29282;45.656;11.302;2022-11-15T05:00:25;2.97;;;2.63;;
33162;SDS011;29282;45.656;11.302;2022-11-15T05:02:51;6.68;;;3.20;;
33162;SDS011;29282;45.656;11.302;2022-11-15T05:05:35;3.70;;;3.10;;
33162;SDS011;29282;45.656;11.302;2022-11-15T05:08:01;3.42;;;2.78;;
33162;SDS011;29282;45.656;11.302;2022-11-15T05:10:27;4.70;;;2.75;;
33162;SDS011;29282;45.656;11.302;2022-11-15T05:12:53;3.75;;;2.80;;
33162;SDS011;29282;45.656;11.302;2022-11-15T05:15:19;3.33;;;3.03;;
33162;SDS011;29282;45.656;11.302;2022-11-15T05:17:45;3.30;;;2.70;;
33162;SDS011;29282;45.656;11.302;2022-11-15T05:20:10;3.22;;;2.70;;
33162;SDS011;29282;45.656;11.302;2022-11-15T05:22:36;4.28;;;2.67;;
33162;SDS011;29282;45.656;11.302;2022-11-15T05:25:02;3.15;;;2.80;;
33162;SDS011;29282;45.656;11.302;2022-11-15T05:27:28;3.05;;;2.70;;
33162;SDS011;29282;45.656;11.302;2022-11-15T05:29:53;3.30;;;2.85;;
33162;SDS011;29282;45.656;11.302;2022-11-15T05:32:19;4.47;;;2.80;;
33162;SDS011;29282;45.656;11.302;2022-11-15T05:34:45;4.43;;;3.65;;
33162;SDS011;29282;45.656;11.302;2022-11-15T05:37:11;6.10;;;4.25;;
33162;SDS011;29282;45.656;11.302;2022-11-15T05:39:38;5.60;;;4.80;;
33162;SDS011;29282;45.656;11.302;2022-11-15T05:42:10;5.00;;;4.50;;
33162;SDS011;29282;45.656;11.302;2022-11-15T05:44:39;5.03;;;4.55;;
33162;SDS011;29282;45.656;11.302;2022-11-15T05:47:08;8.00;;;5.30;;
33162;SDS011;29282;45.656;11.302;2022-11-15T05:49:38;6.03;;;5.07;;
33162;SDS011;29282;45.656;11.302;2022-11-15T05:52:05;6.07;;;5.25;;
33162;SDS011;29282;45.656;11.302;2022-11-15T05:54:33;6.13;;;5.30;;
33162;SDS011;29282;45.656;11.302;2022-11-15T05:57:00;7.60;;;5.15;;
33162;SDS011;29282;45.656;11.302;2022-11-15T05:59:28;6.85;;;5.40;;
33162;SDS011;29282;45.656;11.302;2022-11-15T06:01:55;7.50;;;5.45;;
33162;SDS011;29282;45.656;11.302;2022-11-15T06:04:21;7.82;;;5.93;;
33162;SDS011;29282;45.656;11.302;2022-11-15T06:06:46;10.07;;;5.80;;
33162;SDS011;29282;45.656;11.302;2022-11-15T06:09:12;6.28;;;5.53;;
33162;SDS011;29282;45.656;11.302;2022-11-15T06:11:37;12.05;;;5.85;;
33162;SDS011;29282;45.656;11.302;2022-11-15T06:14:03;9.38;;;5.32;;
33162;SDS011;29282;45.656;11.302;2022-11-15T06:16:28;11.82;;;5.93;;
33162;SDS011;29282;45.656;11.302;2022-11-15T06:18:54;9.50;;;5.25;;
33162;SDS011;29282;45.656;11.302;2022-11-15T06:21:19;7.72;;;6.22;;
33162;SDS011;29282;45.656;11.302;2022-11-15T06:23:45;11.55;;;5.60;;
33162;SDS011;29282;45.656;11.302;2022-11-15T06:26:11;9.15;;;5.32;;
33162;SDS011;29282;45.656;11.302;2022-11-15T06:28:36;7.15;;;5.32;;
33162;SDS011;29282;45.656;11.302;2022-11-15T06:31:06;12.35;;;5.25;;
33162;SDS011;29282;45.656;11.302;2022-11-15T06:33:34;10.48;;;5.90;;
33162;SDS011;29282;45.656;11.302;2022-11-15T06:36:00;6.28;;;5.28;;
33162;SDS011;29282;45.656;11.302;2022-11-15T06:38:30;7.70;;;5.25;;
33162;SDS011;29282;45.656;11.302;2022-11-15T06:41:03;8.50;;;5.50;;
33162;SDS011;29282;45.656;11.302;2022-11-15T06:43:33;9.45;;;5.50;;
33162;SDS011;29282;45.656;11.302;2022-11-15T06:46:00;6.32;;;5.50;;
33162;SDS011;29282;45.656;11.302;2022-11-15T06:48:28;6.78;;;5.32;;
33162;SDS011;29282;45.656;11.302;2022-11-15T06:50:54;6.32;;;4.85;;
33162;SDS011;29282;45.656;11.302;2022-11-15T06:53:21;6.32;;;4.78;;
33162;SDS011;29282;45.656;11.302;2022-11-15T06:55:48;10.48;;;4.95;;
33162;SDS011;29282;45.656;11.302;2022-11-15T06:58:13;8.27;;;5.15;;
33162;SDS011;29282;45.656;11.302;2022-11-15T07:00:39;8.55;;;5.20;;
33162;SDS011;29282;45.656;11.302;2022-11-15T07:03:05;10.82;;;5.32;;
33162;SDS011;29282;45.656;11.302;2022-11-15T07:05:30;11.70;;;5.85;;
33162;SDS011;29282;45.656;11.302;2022-11-15T07:07:56;9.00;;;5.35;;
33162;SDS011;29282;45.656;11.302;2022-11-15T07:10:23;6.18;;;5.20;;
33162;SDS011;29282;45.656;11.302;2022-11-15T07:12:52;10.55;;;5.22;;
33162;SDS011;29282;45.656;11.302;2022-11-15T07:15:20;8.25;;;5.05;;
33162;SDS011;29282;45.656;11.302;2022-11-15T07:17:48;8.55;;;4.60;;
33162;SDS011;29282;45.656;11.302;2022-11-15T07:20:16;9.52;;;5.30;;
33162;SDS011;29282;45.656;11.302;2022-11-15T07:22:42;14.90;;;5.22;;
33162;SDS011;29282;45.656;11.302;2022-11-15T07:25:10;10.38;;;5.15;;
33162;SDS011;29282;45.656;11.302;2022-11-15T07:27:36;8.15;;;5.32;;
33162;SDS011;29282;45.656;11.302;2022-11-15T07:30:02;9.90;;;5.28;;
33162;SDS011;29282;45.656;11.302;2022-11-15T07:32:28;14.38;;;5.18;;
33162;SDS011;29282;45.656;11.302;2022-11-15T07:34:54;12.55;;;5.00;;
33162;SDS011;29282;45.656;11.302;2022-11-15T07:37:19;12.32;;;5.85;;
33162;SDS011;29282;45.656;11.302;2022-11-15T07:39:45;11.50;;;5.60;;
33162;SDS011;29282;45.656;11.302;2022-11-15T07:42:10;10.07;;;5.03;;
33162;SDS011;29282;45.656;11.302;2022-11-15T07:44:54;10.93;;;5.25;;
33162;SDS011;29282;45.656;11.302;2022-11-15T07:47:20;9.23;;;4.40;;
33162;SDS011;29282;45.656;11.302;2022-11-15T07:49:46;10.70;;;5.00;;
33162;SDS011;29282;45.656;11.302;2022-11-15T07:52:12;12.18;;;5.72;;
33162;SDS011;29282;45.656;11.302;2022-11-15T07:54:38;9.27;;;5.20;;
33162;SDS011;29282;45.656;11.302;2022-11-15T07:57:04;12.07;;;5.22;;
33162;SDS011;29282;45.656;11.302;2022-11-15T07:59:30;12.00;;;5.25;;
33162;SDS011;29282;45.656;11.302;2022-11-15T08:01:56;11.07;;;5.30;;
33162;SDS011;29282;45.656;11.302;2022-11-15T08:04:21;8.25;;;4.60;;
33162;SDS011;29282;45.656;11.302;2022-11-15T08:06:47;7.47;;;4.43;;
33162;SDS011;29282;45.656;11.302;2022-11-15T08:09:12;6.93;;;5.07;;
33162;SDS011;29282;45.656;11.302;2022-11-15T08:11:38;12.18;;;5.10;;
33162;SDS011;29282;45.656;11.302;2022-11-15T08:14:03;9.60;;;4.57;;
33162;SDS011;29282;45.656;11.302;2022-11-15T08:16:29;7.35;;;4.85;;
33162;SDS011;29282;45.656;11.302;2022-11-15T08:18:54;9.20;;;5.03;;
33162;SDS011;29282;45.656;11.302;2022-11-15T08:21:20;7.68;;;4.85;;
33162;SDS011;29282;45.656;11.302;2022-11-15T08:23:46;8.68;;;4.78;;
33162;SDS011;29282;45.656;11.302;2022-11-15T08:26:12;5.35;;;4.45;;
33162;SDS011;29282;45.656;11.302;2022-11-15T08:28:38;5.40;;;4.53;;
33162;SDS011;29282;45.656;11.302;2022-11-15T08:31:03;12.55;;;4.93;;
33162;SDS011;29282;45.656;11.302;2022-11-15T08:33:29;6.75;;;4.25;;
33162;SDS011;29282;45.656;11.302;2022-11-15T08:35:56;8.57;;;4.75;;
33162;SDS011;29282;45.656;11.302;2022-11-15T08:38:23;10.25;;;4.45;;
33162;SDS011;29282;45.656;11.302;2022-11-15T08:40:50;5.25;;;4.30;;
33162;SDS011;29282;45.656;11.302;2022-11-15T08:43:17;7.82;;;4.47;;
33162;SDS011;29282;45.656;11.302;2022-11-15T08:45:42;8.20;;;4.38;;
33162;SDS011;29282;45.656;11.302;2022-11-15T08:48:09;7.80;;;4.47;;
33162;SDS011;29282;45.656;11.302;2022-11-15T08:50:34;9.73;;;4.22;;
33162;SDS011;29282;45.656;11.302;2022-11-15T08:53:06;7.38;;;4.25;;
33162;SDS011;29282;45.656;11.302;2022-11-15T08:55:35;4.88;;;4.20;;
33162;SDS011;29282;45.656;11.302;2022-11-15T08:58:01;6.38;;;3.95;;
33162;SDS011;29282;45.656;11.302;2022-11-15T09:00:27;7.18;;;4.30;;
33162;SDS011;29282;45.656;11.302;2022-11-15T09:02:56;9.27;;;4.55;;
33162;SDS011;29282;45.656;11.302;2022-11-15T09:05:21;6.32;;;4.00;;
33162;SDS011;29282;45.656;11.302;2022-11-15T09:07:47;8.50;;;4.05;;
33162;SDS011;29282;45.656;11.302;2022-11-15T09:10:12;7.47;;;4.45;;
33162;SDS011;29282;45.656;11.302;2022-11-15T09:12:38;9.10;;;3.83;;
33162;SDS011;29282;45.656;11.302;2022-11-15T09:15:06;5.80;;;4.13;;
33162;SDS011;29282;45.656;11.302;2022-11-15T09:17:32;4.80;;;4.30;;
33162;SDS011;29282;45.656;11.302;2022-11-15T09:19:58;5.32;;;4.32;;
33162;SDS011;29282;45.656;11.302;2022-11-15T09:22:23;4.22;;;3.83;;
33162;SDS011;29282;45.656;11.302;2022-11-15T09:24:52;5.10;;;3.67;;
33162;SDS011;29282;45.656;11.302;2022-11-15T09:27:17;5.70;;;4.00;;
33162;SDS011;29282;45.656;11.302;2022-11-15T09:29:43;6.78;;;4.82;;
33162;SDS011;29282;45.656;11.302;2022-11-15T09:32:08;4.70;;;3.90;;
33162;SDS011;29282;45.656;11.302;2022-11-15T09:34:34;7.53;;;3.95;;
33162;SDS011;29282;45.656;11.302;2022-11-15T09:37:00;7.22;;;4.20;;
33162;SDS011;29282;45.656;11.302;2022-11-15T09:39:25;7.22;;;3.90;;
33162;SDS011;29282;45.656;11.302;2022-11-15T09:44:47;6.80;;;4.25;;
33162;SDS011;29282;45.656;11.302;2022-11-15T09:47:28;4.75;;;4.03;;
33162;SDS011;29282;45.656;11.302;2022-11-15T09:50:11;5.85;;;3.60;;
33162;SDS011;29282;45.656;11.302;2022-11-15T09:52:41;5.97;;;3.85;;
33162;SDS011;29282;45.656;11.302;2022-11-15T09:55:10;7.05;;;4.13;;
33162;SDS011;29282;45.656;11.302;2022-11-15T09:57:57;4.45;;;3.72;;
33162;SDS011;29282;45.656;11.302;2022-11-15T10:00:31;4.63;;;4.20;;
33162;SDS011;29282;45.656;11.302;2022-11-15T10:05:54;4.00;;;3.65;;
33162;SDS011;29282;45.656;11.302;2022-11-15T10:11:22;6.85;;;3.65;;
33162;SDS011;29282;45.656;11.302;2022-11-15T10:13:51;4.38;;;3.70;;
33162;SDS011;29282;45.656;11.302;2022-11-15T10:27:50;5.35;;;3.60;;
33162;SDS011;29282;45.656;11.302;2022-11-15T10:30:20;6.32;;;4.03;;
33162;SDS011;29282;45.656;11.302;2022-11-15T10:32:47;4.50;;;3.47;;
33162;SDS011;29282;45.656;11.302;2022-11-15T10:37:42;5.45;;;3.80;;
33162;SDS011;29282;45.656;11.302;2022-11-15T10:40:15;4.30;;;3.90;;
33162;SDS011;29282;45.656;11.302;2022-11-15T10:42:44;3.97;;;3.47;;
33162;SDS011;29282;45.656;11.302;2022-11-15T10:45:23;4.00;;;3.60;;
33162;SDS011;29282;45.656;11.302;2022-11-15T10:47:50;3.95;;;3.55;;
33162;SDS011;29282;45.656;11.302;2022-11-15T10:52:54;4.60;;;4.05;;
33162;SDS011;29282;45.656;11.302;2022-11-15T10:55:21;4.07;;;3.58;;
33162;SDS011;29282;45.656;11.302;2022-11-15T10:57:52;4.78;;;3.70;;
33162;SDS011;29282;45.656;11.302;2022-11-15T11:05:36;5.80;;;3.92;;
33162;SDS011;29282;45.656;11.302;2022-11-15T11:10:30;4.55;;;3.67;;
33162;SDS011;29282;45.656;11.302;2022-11-15T11:15:48;5.40;;;3.22;;
33162;SDS011;29282;45.656;11.302;2022-11-15T11:21:40;5.50;;;3.93;;
33162;SDS011;29282;45.656;11.302;2022-11-15T11:27:20;5.20;;;3.53;;
33162;SDS011;29282;45.656;11.302;2022-11-15T11:32:40;3.85;;;3.38;;
33162;SDS011;29282;45.656;11.302;2022-11-15T11:38:44;5.03;;;3.38;;
33162;SDS011;29282;45.656;11.302;2022-11-15T11:41:05;4.10;;;3.60;;
33162;SDS011;29282;45.656;11.302;2022-11-15T11:49:38;6.70;;;3.50;;
33162;SDS011;29282;45.656;11.302;2022-11-15T11:52:04;5.45;;;3.70;;
33162;SDS011;29282;45.656;11.302;2022-11-15T11:57:17;10.48;;;3.40;;
33162;SDS011;29282;45.656;11.302;2022-11-15T12:02:41;8.90;;;3.70;;
33162;SDS011;29282;45.656;11.302;2022-11-15T12:05:19;5.53;;;3.55;;
33162;SDS011;29282;45.656;11.302;2022-11-15T12:07:53;6.35;;;3.58;;
33162;SDS011;29282;45.656;11.302;2022-11-15T12:10:25;4.10;;;3.38;;
33162;SDS011;29282;45.656;11.302;2022-11-15T12:13:00;4.13;;;3.00;;
33162;SDS011;29282;45.656;11.302;2022-11-15T12:15:31;5.68;;;3.40;;
33162;SDS011;29282;45.656;11.302;2022-11-15T12:18:02;4.00;;;3.22;;
33162;SDS011;29282;45.656;11.302;2022-11-15T12:21:13;6.80;;;3.70;;
33162;SDS011;29282;45.656;11.302;2022-11-15T12:23:22;3.95;;;3.42;;
33162;SDS011;29282;45.656;11.302;2022-11-15T12:26:16;5.80;;;3.42;;
33162;SDS011;29282;45.656;11.302;2022-11-15T12:31:14;8.98;;;3.15;;
33162;SDS011;29282;45.656;11.302;2022-11-15T12:36:54;3.75;;;3.33;;
33162;SDS011;29282;45.656;11.302;2022-11-15T12:39:20;7.90;;;3.47;;
33162;SDS011;29282;45.656;11.302;2022-11-15T13:04:47;12.15;;;4.07;;
33162;SDS011;29282;45.656;11.302;2022-11-15T13:15:45;5.20;;;3.90;;
33162;SDS011;29282;45.656;11.302;2022-11-15T13:18:27;8.48;;;3.80;;
33162;SDS011;29282;45.656;11.302;2022-11-15T13:21:00;7.30;;;3.78;;
33162;SDS011;29282;45.656;11.302;2022-11-15T13:23:51;9.80;;;4.03;;
33162;SDS011;29282;45.656;11.302;2022-11-15T13:26:18;9.50;;;3.42;;
33162;SDS011;29282;45.656;11.302;2022-11-15T13:28:46;14.48;;;4.28;;
33162;SDS011;29282;45.656;11.302;2022-11-15T13:34:48;11.13;;;3.92;;
33162;SDS011;29282;45.656;11.302;2022-11-15T13:37:01;7.07;;;3.75;;
33162;SDS011;29282;45.656;11.302;2022-11-15T13:39:33;8.38;;;3.78;;
33162;SDS011;29282;45.656;11.302;2022-11-15T13:42:02;7.75;;;3.90;;
33162;SDS011;29282;45.656;11.302;2022-11-15T13:44:32;7.32;;;3.97;;
33162;SDS011;29282;45.656;11.302;2022-11-15T13:49:30;9.02;;;3.38;;
33162;SDS011;29282;45.656;11.302;2022-11-15T13:51:57;7.03;;;3.65;;
33162;SDS011;29282;45.656;11.302;2022-11-15T13:57:01;5.82;;;3.53;;
33162;SDS011;29282;45.656;11.302;2022-11-15T13:59:30;5.40;;;3.30;;
33162;SDS011;29282;45.656;11.302;2022-11-15T14:02:02;7.55;;;3.88;;
33162;SDS011;29282;45.656;11.302;2022-11-15T14:04:44;9.25;;;4.18;;
33162;SDS011;29282;45.656;11.302;2022-11-15T14:07:16;7.75;;;3.65;;
33162;SDS011;29282;45.656;11.302;2022-11-15T14:09:44;10.07;;;3.88;;
33162;SDS011;29282;45.656;11.302;2022-11-15T14:14:57;5.88;;;3.50;;
33162;SDS011;29282;45.656;11.302;2022-11-15T14:19:55;6.55;;;3.97;;
33162;SDS011;29282;45.656;11.302;2022-11-15T14:22:23;14.02;;;3.50;;
33162;SDS011;29282;45.656;11.302;2022-11-15T14:27:40;5.60;;;3.40;;
33162;SDS011;29282;45.656;11.302;2022-11-15T14:30:15;7.50;;;3.55;;
33162;SDS011;29282;45.656;11.302;2022-11-15T14:32:46;4.57;;;3.40;;
33162;SDS011;29282;45.656;11.302;2022-11-15T14:35:20;7.72;;;3.60;;
33162;SDS011;29282;45.656;11.302;2022-11-15T14:37:47;4.68;;;3.60;;
33162;SDS011;29282;45.656;11.302;2022-11-15T14:40:13;5.43;;;3.58;;
33162;SDS011;29282;45.656;11.302;2022-11-15T14:42:44;5.65;;;3.05;;
33162;SDS011;29282;45.656;11.302;2022-11-15T14:47:44;7.03;;;3.40;;
33162;SDS011;29282;45.656;11.302;2022-11-15T14:50:17;4.57;;;3.22;;
33162;SDS011;29282;45.656;11.302;2022-11-15T14:52:45;7.43;;;3.75;;
33162;SDS011;29282;45.656;11.302;2022-11-15T14:55:21;4.97;;;3.70;;
33162;SDS011;29282;45.656;11.302;2022-11-15T14:57:48;6.70;;;3.58;;
33162;SDS011;29282;45.656;11.302;2022-11-15T15:00:14;5.70;;;3.10;;
33162;SDS011;29282;45.656;11.302;2022-11-15T15:02:41;5.20;;;3.30;;
33162;SDS011;29282;45.656;11.302;2022-11-15T15:05:24;6.18;;;3.33;;
33162;SDS011;29282;45.656;11.302;2022-11-15T15:07:51;7.00;;;3.50;;
33162;SDS011;29282;45.656;11.302;2022-11-15T15:10:18;4.57;;;3.50;;
33162;SDS011;29282;45.656;11.302;2022-11-15T15:12:44;5.85;;;3.45;;
33162;SDS011;29282;45.656;11.302;2022-11-15T15:15:17;4.70;;;3.20;;
33162;SDS011;29282;45.656;11.302;2022-11-15T15:17:48;5.63;;;3.10;;
33162;SDS011;29282;45.656;11.302;2022-11-15T15:20:14;7.47;;;3.50;;
33162;SDS011;29282;45.656;11.302;2022-11-15T15:22:40;4.22;;;3.13;;
33162;SDS011;29282;45.656;11.302;2022-11-15T15:27:52;5.85;;;4.03;;
33162;SDS011;29282;45.656;11.302;2022-11-15T15:30:17;5.60;;;3.45;;
33162;SDS011;29282;45.656;11.302;2022-11-15T15:32:43;6.82;;;3.45;;
33162;SDS011;29282;45.656;11.302;2022-11-15T15:35:11;9.18;;;3.45;;
33162;SDS011;29282;45.656;11.302;2022-11-15T15:37:37;5.30;;;3.33;;
33162;SDS011;29282;45.656;11.302;2022-11-15T15:40:08;6.18;;;3.58;;
33162;SDS011;29282;45.656;11.302;2022-11-15T15:42:40;4.30;;;3.20;;
33162;SDS011;29282;45.656;11.302;2022-11-15T15:45:06;6.80;;;3.83;;
33162;SDS011;29282;45.656;11.302;2022-11-15T15:47:33;6.30;;;3.47;;
33162;SDS011;29282;45.656;11.302;2022-11-15T15:49:58;4.75;;;3.20;;
33162;SDS011;29282;45.656;11.302;2022-11-15T15:52:24;4.88;;;3.40;;
33162;SDS011;29282;45.656;11.302;2022-11-15T15:54:50;4.28;;;3.33;;
33162;SDS011;29282;45.656;11.302;2022-11-15T15:57:15;7.50;;;3.20;;
33162;SDS011;29282;45.656;11.302;2022-11-15T15:59:41;4.95;;;3.40;;
33162;SDS011;29282;45.656;11.302;2022-11-15T16:02:15;4.90;;;3.33;;
33162;SDS011;29282;45.656;11.302;2022-11-15T16:04:41;5.47;;;3.53;;
33162;SDS011;29282;45.656;11.302;2022-11-15T16:07:07;5.82;;;3.33;;
33162;SDS011;29282;45.656;11.302;2022-11-15T16:09:41;6.35;;;3.70;;
33162;SDS011;29282;45.656;11.302;2022-11-15T16:12:32;6.38;;;3.40;;
33162;SDS011;29282;45.656;11.302;2022-11-15T16:14:59;5.32;;;3.28;;
33162;SDS011;29282;45.656;11.302;2022-11-15T16:17:26;6.40;;;3.25;;
33162;SDS011;29282;45.656;11.302;2022-11-15T16:19:55;5.30;;;2.85;;
33162;SDS011;29282;45.656;11.302;2022-11-15T16:22:21;5.70;;;3.45;;
33162;SDS011;29282;45.656;11.302;2022-11-15T16:24:47;6.03;;;3.70;;
33162;SDS011;29282;45.656;11.302;2022-11-15T16:27:16;4.82;;;3.80;;
33162;SDS011;29282;45.656;11.302;2022-11-15T16:29:44;6.28;;;3.40;;
33162;SDS011;29282;45.656;11.302;2022-11-15T16:32:10;5.25;;;3.60;;
33162;SDS011;29282;45.656;11.302;2022-11-15T16:34:36;7.07;;;3.50;;
33162;SDS011;29282;45.656;11.302;2022-11-15T16:37:01;4.68;;;3.55;;
33162;SDS011;29282;45.656;11.302;2022-11-15T16:39:27;5.35;;;3.58;;
33162;SDS011;29282;45.656;11.302;2022-11-15T16:41:55;4.13;;;3.63;;
33162;SDS011;29282;45.656;11.302;2022-11-15T16:44:21;7.55;;;3.97;;
33162;SDS011;29282;45.656;11.302;2022-11-15T16:46:49;6.68;;;4.07;;
33162;SDS011;29282;45.656;11.302;2022-11-15T16:49:21;8.35;;;3.85;;
33162;SDS011;29282;45.656;11.302;2022-11-15T16:51:48;7.43;;;3.85;;
33162;SDS011;29282;45.656;11.302;2022-11-15T16:54:14;6.65;;;4.18;;
33162;SDS011;29282;45.656;11.302;2022-11-15T16:56:39;5.65;;;4.03;;
33162;SDS011;29282;45.656;11.302;2022-11-15T16:59:05;6.13;;;4.10;;
33162;SDS011;29282;45.656;11.302;2022-11-15T17:01:35;5.75;;;4.22;;
33162;SDS011;29282;45.656;11.302;2022-11-15T17:04:11;7.13;;;4.20;;
33162;SDS011;29282;45.656;11.302;2022-11-15T17:06:38;8.80;;;4.13;;
33162;SDS011;29282;45.656;11.302;2022-11-15T17:09:05;5.30;;;4.20;;
33162;SDS011;29282;45.656;11.302;2022-11-15T17:11:31;9.15;;;4.60;;
33162;SDS011;29282;45.656;11.302;2022-11-15T17:13:57;5.95;;;4.70;;
33162;SDS011;29282;45.656;11.302;2022-11-15T17:16:23;5.93;;;4.95;;
33162;SDS011;29282;45.656;11.302;2022-11-15T17:18:49;6.82;;;5.00;;